Time;durP1;ratioP1;P1;durP2;ratioP2;P2;SDS_P1;SDS_P2;PMS_P1;PMS_P2;Temp;Humidity;BMP_temperature;BMP_pressure;BME280_temperature;BME280_humidity;BME280_pressure;Samples;Min_cycle;Max_cycle;Signal;HPM_P1;HPM_P2
2022/05/22 00:02:02;;;;;;;12.50;4.10;;;14.50;99.90;;;;;;5075654;28;20035;-72
2022/05/22 00:04:29;;;;;;;12.70;3.70;;;14.50;99.90;;;;;;5091425;28;20559;-72
2022/05/22 00:06:55;;;;;;;14.40;4.10;;;14.60;99.90;;;;;;5094719;28;20028;-72
2022/05/22 00:09:21;;;;;;;9.93;3.30;;;14.90;99.90;;;;;;5096033;28;20024;-72
2022/05/22 00:11:47;;;;;;;10.75;3.80;;;14.90;99.90;;;;;;5095926;28;20024;-72
2022/05/22 00:14:13;;;;;;;11.68;4.07;;;14.90;99.90;;;;;;5095830;28;20034;-72
2022/05/22 00:16:41;;;;;;;12.52;3.60;;;15.10;99.90;;;;;;5095684;28;20044;-71
2022/05/22 00:19:10;;;;;;;13.98;4.05;;;15.10;99.90;;;;;;5094623;28;20016;-71
2022/05/22 00:21:38;;;;;;;9.70;3.90;;;15.10;99.90;;;;;;5095579;28;20039;-71
2022/05/22 00:24:05;;;;;;;10.43;4.18;;;15.10;99.90;;;;;;5094352;28;20089;-71
2022/05/22 00:26:35;;;;;;;10.93;4.70;;;15.00;99.90;;;;;;5094383;28;20028;-71
2022/05/22 00:29:01;;;;;;;11.50;4.03;;;15.00;99.90;;;;;;5095410;28;20020;-71
2022/05/22 00:31:27;;;;;;;10.85;4.60;;;14.90;99.90;;;;;;5095387;28;20024;-71
2022/05/22 00:33:53;;;;;;;13.00;4.55;;;15.00;99.90;;;;;;5095283;28;20020;-71
2022/05/22 00:36:19;;;;;;;10.30;4.22;;;15.00;99.90;;;;;;5095410;28;20404;-71
2022/05/22 00:38:45;;;;;;;9.35;4.68;;;14.60;99.90;;;;;;5094093;28;20024;-71
2022/05/22 00:41:12;;;;;;;9.07;3.83;;;14.30;99.90;;;;;;5094085;28;20415;-71
2022/05/22 00:43:45;;;;;;;12.77;4.68;;;13.90;99.90;;;;;;5076797;28;20048;-71
2022/05/22 00:46:12;;;;;;;11.27;4.45;;;13.60;99.90;;;;;;5093919;28;20107;-72
2022/05/22 00:48:40;;;;;;;12.85;4.78;;;13.50;99.90;;;;;;5076077;28;20039;-72
2022/05/22 00:51:25;;;;;;;5.63;3.58;;;13.60;99.90;;;;;;5073578;28;20025;-71
2022/05/22 00:54:01;;;;;;;16.75;4.75;;;13.90;99.90;;;;;;5074996;28;20021;-71
2022/05/22 00:56:36;;;;;;;13.00;4.40;;;14.00;99.90;;;;;;5075105;28;20044;-71
2022/05/22 00:59:08;;;;;;;12.88;4.63;;;14.10;99.90;;;;;;5074545;28;20116;-72
2022/05/22 01:01:35;;;;;;;13.85;4.25;;;14.20;99.90;;;;;;5073441;28;20032;-72
2022/05/22 01:04:05;;;;;;;10.55;4.30;;;14.10;99.90;;;;;;5085511;28;20077;-71
2022/05/22 01:06:31;;;;;;;13.48;5.00;;;14.10;99.90;;;;;;5076620;28;20036;-72
2022/05/22 01:08:58;;;;;;;16.98;5.47;;;14.30;99.90;;;;;;5094786;28;20074;-72
2022/05/22 01:11:36;;;;;;;10.80;5.47;;;14.20;99.90;;;;;;5076695;28;20472;-71
2022/05/22 01:14:06;;;;;;;10.23;4.78;;;14.30;99.90;;;;;;5093096;28;20028;-71
2022/05/22 01:16:34;;;;;;;10.60;4.15;;;14.20;99.90;;;;;;5093147;28;20047;-71
2022/05/22 01:19:00;;;;;;;9.13;4.32;;;13.50;99.90;;;;;;5094593;28;20427;-72
2022/05/22 01:21:34;;;;;;;14.57;5.38;;;13.20;99.90;;;;;;5093254;28;20480;-71
2022/05/22 01:24:00;;;;;;;13.18;5.13;;;13.10;99.90;;;;;;5092669;28;20031;-71
2022/05/22 01:26:30;;;;;;;11.45;4.63;;;13.10;99.90;;;;;;5093224;28;20050;-71
2022/05/22 01:29:04;;;;;;;11.60;4.72;;;13.60;99.90;;;;;;5092789;28;20024;-71
2022/05/22 01:31:30;;;;;;;12.43;4.90;;;13.80;99.90;;;;;;5093631;28;20169;-72
2022/05/22 01:33:59;;;;;;;12.60;4.32;;;14.00;99.90;;;;;;5076825;28;20024;-71
2022/05/22 01:36:25;;;;;;;13.18;4.82;;;14.20;99.90;;;;;;5093255;28;20038;-71
2022/05/22 01:38:54;;;;;;;13.93;4.20;;;14.20;99.90;;;;;;5093186;28;20032;-71
2022/05/22 01:41:24;;;;;;;11.27;4.78;;;14.00;99.90;;;;;;5092684;28;20027;-71
2022/05/22 01:43:50;;;;;;;13.73;4.68;;;14.00;99.90;;;;;;5092529;28;20046;-71
2022/05/22 01:46:18;;;;;;;9.95;4.57;;;14.20;99.90;;;;;;5093953;28;20123;-72
2022/05/22 01:49:00;;;;;;;15.60;4.95;;;13.90;99.90;;;;;;5072171;28;20130;-71
2022/05/22 01:51:27;;;;;;;10.48;4.18;;;13.80;99.90;;;;;;5072280;28;20048;-71
2022/05/22 01:53:53;;;;;;;12.63;4.97;;;13.90;99.90;;;;;;5072117;28;20035;-71
2022/05/22 01:56:19;;;;;;;13.07;4.70;;;14.00;99.90;;;;;;5071745;28;20389;-71
2022/05/22 01:58:45;;;;;;;13.73;4.80;;;13.80;99.90;;;;;;5072098;28;20492;-71
2022/05/22 02:01:12;;;;;;;12.55;5.13;;;13.80;99.90;;;;;;5055436;28;20245;-71
2022/05/22 02:03:38;;;;;;;12.80;5.03;;;14.00;99.90;;;;;;5080632;28;20465;-71
2022/05/22 02:06:05;;;;;;;9.20;4.80;;;13.80;99.90;;;;;;5092207;28;20032;-71
2022/05/22 02:08:32;;;;;;;20.05;4.93;;;13.30;99.90;;;;;;5092223;28;20059;-71
2022/05/22 02:11:02;;;;;;;13.65;5.10;;;13.40;99.90;;;;;;5091815;28;20043;-71
2022/05/22 02:13:32;;;;;;;10.88;5.07;;;13.60;99.90;;;;;;5091872;28;20511;-71
2022/05/22 02:15:58;;;;;;;11.63;4.60;;;13.60;99.90;;;;;;5074866;28;20492;-71
2022/05/22 02:18:28;;;;;;;10.93;4.43;;;13.50;99.90;;;;;;5091804;28;20081;-71
2022/05/22 02:20:54;;;;;;;9.38;5.13;;;13.40;99.90;;;;;;5092031;28;20020;-71
2022/05/22 02:23:20;;;;;;;10.32;4.93;;;13.50;99.90;;;;;;5093251;28;20035;-71
2022/05/22 02:25:52;;;;;;;16.40;4.60;;;13.60;99.90;;;;;;5091941;28;20071;-71
2022/05/22 02:28:20;;;;;;;8.32;5.00;;;13.70;99.90;;;;;;5091412;28;20035;-71
2022/05/22 02:30:50;;;;;;;17.00;5.22;;;13.60;99.90;;;;;;5093207;28;20024;-71
2022/05/22 02:33:17;;;;;;;10.60;4.80;;;13.60;99.90;;;;;;5091732;28;20165;-71
2022/05/22 02:35:51;;;;;;;10.85;4.47;;;13.60;99.90;;;;;;5075536;28;20033;-70
2022/05/22 02:38:24;;;;;;;16.55;5.70;;;13.70;99.90;;;;;;5071212;28;20166;-71
2022/05/22 02:40:51;;;;;;;15.55;4.75;;;13.70;99.90;;;;;;5071501;28;20086;-71
2022/05/22 02:43:17;;;;;;;16.48;4.88;;;13.70;99.90;;;;;;5071363;28;20560;-71
2022/05/22 02:45:48;;;;;;;14.57;5.22;;;13.30;99.90;;;;;;5071649;28;20111;-71
2022/05/22 02:48:15;;;;;;;13.82;5.05;;;13.10;99.90;;;;;;5066934;28;20025;-71
2022/05/22 02:50:55;;;;;;;12.75;4.43;;;12.90;99.90;;;;;;5071306;28;20492;-71
2022/05/22 02:53:21;;;;;;;14.20;4.50;;;12.70;99.90;;;;;;5071461;28;20036;-71
2022/05/22 02:56:18;;;;;;;14.70;4.88;;;12.80;99.90;;;;;;5072455;28;20043;-71
2022/05/22 02:58:56;;;;;;;10.98;4.88;;;13.10;99.90;;;;;;5072677;28;20032;-71
2022/05/22 03:01:22;;;;;;;8.80;4.57;;;12.50;99.90;;;;;;5071417;28;20021;-71
2022/05/22 03:03:48;;;;;;;8.25;4.28;;;12.40;99.90;;;;;;5081380;28;20101;-72
2022/05/22 03:08:59;;;;;;;11.60;5.22;;;12.20;99.90;;;;;;5090998;28;20122;-71
2022/05/22 03:11:25;;;;;;;12.18;5.28;;;12.40;99.90;;;;;;5091828;28;20114;-72
2022/05/22 03:13:52;;;;;;;6.72;4.40;;;12.60;99.90;;;;;;5092959;28;20177;-72
2022/05/22 03:16:17;;;;;;;7.50;4.15;;;12.90;99.90;;;;;;5094876;28;20119;-72
2022/05/22 03:18:56;;;;;;;12.15;4.78;;;12.90;99.90;;;;;;5095626;28;20077;-72
2022/05/22 03:21:23;;;;;;;11.20;5.22;;;12.80;99.90;;;;;;5095741;28;20031;-71
2022/05/22 03:23:57;;;;;;;11.93;4.32;;;12.80;99.90;;;;;;5079248;28;20023;-71
2022/05/22 03:26:23;;;;;;;14.20;5.28;;;12.60;99.90;;;;;;5095294;28;20036;-72
2022/05/22 03:28:49;;;;;;;9.07;4.47;;;12.60;99.90;;;;;;5096794;28;20131;-72
2022/05/22 03:31:16;;;;;;;11.25;4.97;;;12.80;99.90;;;;;;5095292;28;20024;-71
2022/05/22 03:33:42;;;;;;;19.63;5.43;;;12.70;99.90;;;;;;5095285;28;20020;-72
2022/05/22 03:36:08;;;;;;;11.73;5.22;;;12.80;99.90;;;;;;5094901;28;20032;-71
2022/05/22 03:38:34;;;;;;;13.70;6.40;;;12.90;99.90;;;;;;5094915;28;20038;-72
2022/05/22 03:41:04;;;;;;;10.38;4.20;;;12.90;99.90;;;;;;5094941;28;20032;-71
2022/05/22 03:43:36;;;;;;;7.95;4.65;;;12.80;99.90;;;;;;5095148;28;20016;-72
2022/05/22 03:46:02;;;;;;;11.18;4.65;;;12.80;99.90;;;;;;5094785;28;20537;-72
2022/05/22 03:48:30;;;;;;;12.38;4.32;;;12.80;99.90;;;;;;5076918;28;20024;-72
2022/05/22 03:50:55;;;;;;;7.53;4.50;;;12.80;99.90;;;;;;5057778;28;20090;-72
2022/05/22 03:53:25;;;;;;;10.88;4.68;;;12.30;99.90;;;;;;5074171;28;20024;-72
2022/05/22 03:55:52;;;;;;;12.23;4.43;;;12.10;99.90;;;;;;5074251;28;20020;-71
2022/05/22 03:58:26;;;;;;;12.52;5.10;;;12.10;99.90;;;;;;5074691;28;20030;-72
2022/05/22 04:00:52;;;;;;;9.98;4.75;;;12.40;99.90;;;;;;5074185;28;20404;-71
2022/05/22 04:03:17;;;;;;;7.80;4.75;;;12.60;99.90;;;;;;5081599;28;20027;-71
2022/05/22 04:05:45;;;;;;;10.93;5.03;;;12.40;99.90;;;;;;5094499;28;20032;-72
2022/05/22 04:08:11;;;;;;;8.68;5.00;;;12.10;99.90;;;;;;5093976;28;20109;-72
2022/05/22 04:10:49;;;;;;;7.82;4.28;;;12.10;99.90;;;;;;5094541;28;20051;-71
2022/05/22 04:13:15;;;;;;;16.13;5.20;;;12.40;99.90;;;;;;5094491;28;20125;-71
2022/05/22 04:15:46;;;;;;;11.90;6.32;;;12.70;99.90;;;;;;5094090;28;20169;-71
2022/05/22 04:18:15;;;;;;;12.52;4.57;;;12.70;99.90;;;;;;5094284;28;20496;-71
2022/05/22 04:20:41;;;;;;;8.88;4.78;;;12.80;99.90;;;;;;5094173;28;20166;-71
2022/05/22 04:26:12;;;;;;;13.05;4.40;;;13.10;99.90;;;;;;5095043;28;20392;-71
2022/05/22 04:28:38;;;;;;;16.80;5.10;;;12.80;99.90;;;;;;5094441;28;20468;-71
2022/05/22 04:31:22;;;;;;;7.88;4.55;;;12.90;99.90;;;;;;5094051;28;20068;-72
2022/05/22 04:34:20;;;;;;;9.60;4.40;;;13.00;99.90;;;;;;5090756;28;20028;-71
2022/05/22 04:36:46;;;;;;;9.30;4.22;;;13.10;99.90;;;;;;5093674;28;20055;-71
2022/05/22 04:39:29;;;;;;;11.13;4.22;;;13.20;99.90;;;;;;5094137;28;20034;-72
2022/05/22 04:42:02;;;;;;;10.45;4.80;;;13.30;99.90;;;;;;5093963;28;20032;-71
2022/05/22 04:44:29;;;;;;;11.30;4.35;;;13.30;99.90;;;;;;5093842;28;20429;-72
2022/05/22 04:47:11;;;;;;;7.60;4.70;;;13.30;99.90;;;;;;5086581;28;20445;-71
2022/05/22 04:49:36;;;;;;;11.27;5.35;;;13.20;99.90;;;;;;5073688;28;20119;-72
2022/05/22 04:52:02;;;;;;;9.80;4.82;;;13.30;99.90;;;;;;5074311;28;20495;-71
2022/05/22 04:54:28;;;;;;;9.98;4.82;;;13.40;99.90;;;;;;5073330;28;20107;-71
2022/05/22 04:57:01;;;;;;;9.95;4.85;;;13.40;99.90;;;;;;5057473;28;20508;-72
2022/05/22 04:59:28;;;;;;;10.02;5.43;;;13.50;99.90;;;;;;5073360;28;20220;-71
2022/05/22 05:01:54;;;;;;;12.20;5.03;;;13.60;99.90;;;;;;5073510;28;20024;-71
2022/05/22 05:04:30;;;;;;;16.65;5.80;;;13.70;99.90;;;;;;5089039;28;20024;-72
2022/05/22 05:07:07;;;;;;;19.67;5.93;;;13.60;99.90;;;;;;5093188;28;20174;-72
2022/05/22 05:09:52;;;;;;;13.88;5.95;;;13.40;99.90;;;;;;5094696;28;20545;-72
2022/05/22 05:12:40;;;;;;;16.25;5.45;;;13.50;99.90;;;;;;5094519;28;20067;-71
2022/05/22 05:15:10;;;;;;;13.80;5.03;;;13.70;99.90;;;;;;5094627;28;20035;-72
2022/05/22 05:17:36;;;;;;;10.82;5.85;;;13.80;99.90;;;;;;5093182;28;20036;-72
2022/05/22 05:20:03;;;;;;;17.98;6.22;;;14.10;99.90;;;;;;5091816;28;20084;-72
2022/05/22 05:22:43;;;;;;;14.05;5.65;;;14.10;99.90;;;;;;5092072;28;20031;-72
2022/05/22 05:25:17;;;;;;;15.27;5.90;;;14.00;99.90;;;;;;5092754;28;20170;-71
2022/05/22 05:27:43;;;;;;;17.75;6.10;;;14.20;99.90;;;;;;5093050;28;20480;-71
2022/05/22 05:30:15;;;;;;;;;;;14.30;99.90;;;;;;5093500;28;20073;-71
2022/05/22 05:32:45;;;;;;;16.80;6.63;;;14.60;99.90;;;;;;5092382;28;19908;-72
2022/05/22 05:35:31;;;;;;;26.67;7.35;;;14.80;99.90;;;;;;5092243;28;20174;-71
2022/05/22 05:37:58;;;;;;;20.63;6.57;;;14.80;99.90;;;;;;5092443;28;20062;-72
2022/05/22 05:40:25;;;;;;;20.90;6.60;;;15.00;99.90;;;;;;5092550;28;20027;-72
2022/05/22 05:42:51;;;;;;;23.27;6.32;;;15.20;99.90;;;;;;5092549;28;20388;-71
2022/05/22 05:45:18;;;;;;;25.75;6.25;;;15.10;99.90;;;;;;5092825;28;20032;-72
2022/05/22 05:47:51;;;;;;;25.85;7.22;;;15.20;99.90;;;;;;5079993;28;20034;-72
2022/05/22 05:50:27;;;;;;;22.42;7.03;;;15.20;99.90;;;;;;5072061;28;20028;-72
2022/05/22 05:53:10;;;;;;;15.57;7.35;;;15.20;99.90;;;;;;5072206;28;20115;-71
2022/05/22 05:55:47;;;;;;;16.15;6.82;;;15.20;99.90;;;;;;5075885;28;20048;-72
2022/05/22 05:58:39;;;;;;;17.80;7.40;;;15.30;99.90;;;;;;5085088;28;20141;-72
2022/05/22 06:01:24;;;;;;;21.70;7.55;;;15.60;99.90;;;;;;5092153;28;20028;-72
2022/05/22 06:03:53;;;;;;;21.70;8.23;;;15.30;99.90;;;;;;5092025;28;20020;-72
2022/05/22 06:06:20;;;;;;;30.83;7.70;;;15.20;99.90;;;;;;5093278;28;20028;-72
2022/05/22 06:08:48;;;;;;;18.75;7.35;;;14.90;99.90;;;;;;5092130;28;20070;-71
2022/05/22 06:11:37;;;;;;;24.05;7.97;;;15.20;99.90;;;;;;5078689;28;20031;-72
2022/05/22 06:14:11;;;;;;;29.10;8.45;;;15.40;99.90;;;;;;5091952;28;20038;-72
2022/05/22 06:16:38;;;;;;;24.45;8.60;;;15.50;99.90;;;;;;5092030;28;20386;-72
2022/05/22 06:19:08;;;;;;;18.92;7.57;;;15.60;99.90;;;;;;5091829;28;20055;-71
2022/05/22 06:21:35;;;;;;;21.83;8.05;;;15.70;99.90;;;;;;5092147;28;20036;-71
2022/05/22 06:24:01;;;;;;;21.63;7.45;;;15.50;99.90;;;;;;5092041;28;20028;-72
2022/05/22 06:26:45;;;;;;;22.98;6.95;;;15.50;99.90;;;;;;5093073;28;20038;-71
2022/05/22 06:29:24;;;;;;;15.65;7.13;;;15.50;99.90;;;;;;5091731;28;20085;-72
2022/05/22 06:32:18;;;;;;;22.58;6.88;;;15.70;99.90;;;;;;5091706;28;20375;-72
2022/05/22 06:34:59;;;;;;;19.10;6.57;;;15.70;99.90;;;;;;5093190;28;20422;-72
2022/05/22 06:37:46;;;;;;;13.02;6.10;;;15.90;99.90;;;;;;5091871;28;20127;-72
2022/05/22 06:40:38;;;;;;;20.60;6.72;;;16.00;99.90;;;;;;5084281;28;20044;-72
2022/05/22 06:43:34;;;;;;;15.68;5.72;;;16.20;99.90;;;;;;5072724;28;20045;-72
2022/05/22 06:46:25;;;;;;;14.13;6.18;;;16.10;99.90;;;;;;5092792;28;20385;-71
2022/05/22 06:49:23;;;;;;;21.27;6.90;;;16.10;99.90;;;;;;5071250;28;20048;-72
2022/05/22 06:52:09;;;;;;;17.42;6.60;;;16.10;99.90;;;;;;5081548;28;20370;-71
2022/05/22 06:55:03;;;;;;;19.00;5.82;;;16.20;99.90;;;;;;5071086;28;20041;-72
2022/05/22 06:57:37;;;;;;;16.23;6.30;;;16.20;99.90;;;;;;5071462;28;20130;-72
2022/05/22 07:00:18;;;;;;;13.82;6.03;;;16.20;99.90;;;;;;5071266;28;20033;-71
2022/05/22 07:02:44;;;;;;;15.88;6.30;;;16.20;99.90;;;;;;5073523;28;20476;-72
2022/05/22 07:05:20;;;;;;;16.90;6.18;;;16.30;99.90;;;;;;5091335;28;20483;-72
2022/05/22 07:08:06;;;;;;;16.77;5.63;;;16.40;99.90;;;;;;5074313;28;20040;-72
2022/05/22 07:13:49;;;;;;;15.93;6.13;;;16.70;99.90;;;;;;5076838;28;20020;-72
2022/05/22 07:16:38;;;;;;;22.60;5.30;;;17.10;99.90;;;;;;5074589;28;20127;-71
2022/05/22 07:19:12;;;;;;;15.65;6.15;;;17.10;99.90;;;;;;5069628;28;20025;-71
2022/05/22 07:22:06;;;;;;;18.65;6.78;;;17.10;99.90;;;;;;5075779;28;20033;-71
2022/05/22 07:24:42;;;;;;;26.25;7.68;;;17.10;99.90;;;;;;5071067;28;20019;-71
2022/05/22 07:27:19;;;;;;;24.38;7.28;;;17.10;99.90;;;;;;5094086;28;20422;-72
2022/05/22 07:30:08;;;;;;;22.00;7.38;;;17.50;99.90;;;;;;5075987;28;20119;-72
2022/05/22 07:32:55;;;;;;;17.08;6.47;;;17.70;99.90;;;;;;5103714;28;20135;-72
2022/05/22 07:35:20;;;;;;;20.08;7.25;;;17.70;99.90;;;;;;5103993;28;20028;-72
2022/05/22 07:38:06;;;;;;;9.45;3.13;;;18.10;99.90;;;;;;5101181;28;20032;-72
2022/05/22 07:40:52;;;;;;;18.95;4.07;;;18.40;99.90;;;;;;5102117;28;20476;-72
2022/05/22 07:43:38;;;;;;;13.77;3.42;;;18.60;99.90;;;;;;5104871;28;20027;-72
2022/05/22 07:46:22;;;;;;;12.90;3.30;;;18.40;99.90;;;;;;5079854;28;20034;-72
2022/05/22 07:48:52;;;;;;;18.95;3.50;;;18.90;99.90;;;;;;5086460;28;20038;-72
2022/05/22 07:51:27;;;;;;;13.35;3.47;;;19.20;99.80;;;;;;5092456;28;20020;-71
2022/05/22 07:54:18;;;;;;;12.50;3.63;;;19.30;99.70;;;;;;5047623;28;20045;-72
2022/05/22 07:57:07;;;;;;;14.25;4.10;;;19.00;99.20;;;;;;5090151;28;20043;-70
2022/05/22 07:59:53;;;;;;;12.82;3.40;;;18.90;99.90;;;;;;5079347;28;20024;-72
2022/05/22 08:02:38;;;;;;;14.45;3.90;;;19.00;99.90;;;;;;5078678;28;20039;-72
2022/05/22 08:05:05;;;;;;;13.75;4.13;;;19.10;99.30;;;;;;5075134;28;20021;-72
2022/05/22 08:07:38;;;;;;;14.15;4.22;;;19.30;98.90;;;;;;5077677;28;20119;-72
2022/05/22 08:10:15;;;;;;;18.02;4.80;;;19.10;99.10;;;;;;5085945;28;20031;-72
2022/05/22 08:12:46;;;;;;;20.42;5.43;;;19.10;99.30;;;;;;5094571;28;20056;-72
2022/05/22 08:15:21;;;;;;;17.35;4.53;;;19.00;99.30;;;;;;5080083;28;20426;-72
2022/05/22 08:17:49;;;;;;;13.77;4.70;;;19.10;99.80;;;;;;5076692;28;20024;-72
2022/05/22 08:20:19;;;;;;;13.98;4.00;;;19.10;99.90;;;;;;5107043;28;20106;-72
2022/05/22 08:22:57;;;;;;;16.00;4.93;;;19.10;99.30;;;;;;5090235;28;20027;-72
2022/05/22 08:25:58;;;;;;;17.98;5.07;;;19.30;99.90;;;;;;5077791;28;20036;-72
2022/05/22 08:28:27;;;;;;;20.48;5.20;;;19.80;99.90;;;;;;5082769;28;20027;-72
2022/05/22 08:30:53;;;;;;;19.23;5.18;;;20.30;98.90;;;;;;5078433;28;20030;-72
2022/05/22 08:33:20;;;;;;;17.33;4.80;;;20.10;97.50;;;;;;5078694;28;20030;-72
2022/05/22 08:35:46;;;;;;;12.40;4.50;;;20.00;98.90;;;;;;5080345;28;20036;-72
2022/05/22 08:38:12;;;;;;;19.63;4.68;;;19.80;99.60;;;;;;5081900;28;20051;-72
2022/05/22 08:40:56;;;;;;;16.67;5.18;;;20.20;98.50;;;;;;5088585;28;20024;-72
2022/05/22 08:43:48;;;;;;;19.90;4.80;;;19.80;98.40;;;;;;5074529;28;20032;-72
2022/05/22 08:46:22;;;;;;;12.20;4.57;;;19.80;99.00;;;;;;5081605;28;20746;-72
2022/05/22 08:48:56;;;;;;;20.67;5.72;;;20.00;98.30;;;;;;5078140;28;20100;-72
2022/05/22 08:51:39;;;;;;;13.93;4.95;;;20.20;97.90;;;;;;5073026;28;20086;-72
2022/05/22 08:54:33;;;;;;;16.73;5.63;;;20.50;98.10;;;;;;5080987;28;20025;-73
2022/05/22 08:59:53;;;;;;;14.00;5.00;;;20.20;97.50;;;;;;5080419;28;20400;-73
2022/05/22 09:02:22;;;;;;;19.23;6.28;;;20.40;96.70;;;;;;5081904;28;20036;-73
2022/05/22 09:04:57;;;;;;;17.95;5.15;;;20.40;97.50;;;;;;5084764;28;20150;-73
2022/05/22 09:08:08;;;;;;;14.93;4.72;;;20.40;97.50;;;;;;5082467;28;20126;-73
2022/05/22 09:10:39;;;;;;;13.95;4.68;;;20.50;97.10;;;;;;5068525;28;20512;-73
2022/05/22 09:13:36;;;;;;;14.85;5.07;;;20.00;96.60;;;;;;5079067;28;20119;-73
2022/05/22 09:16:20;;;;;;;20.52;6.28;;;20.00;98.50;;;;;;5079085;28;20270;-72
2022/05/22 09:19:03;;;;;;;18.30;4.93;;;20.10;98.10;;;;;;5084993;28;20039;-74
2022/05/22 09:21:36;;;;;;;16.83;5.32;;;20.60;98.20;;;;;;5082564;28;20086;-73
2022/05/22 09:24:13;;;;;;;17.20;4.00;;;21.20;96.80;;;;;;5097363;28;20027;-74
2022/05/22 09:27:07;;;;;;;17.27;4.53;;;21.50;97.50;;;;;;5109091;28;20090;-73
2022/05/22 09:29:56;;;;;;;17.13;4.40;;;21.80;96.80;;;;;;5083234;28;20412;-73
2022/05/22 09:32:56;;;;;;;20.42;4.40;;;21.90;95.80;;;;;;5097884;28;20043;-74
2022/05/22 09:35:38;;;;;;;16.38;4.78;;;22.10;95.20;;;;;;5082629;28;20035;-74
2022/05/22 09:38:27;;;;;;;17.25;4.88;;;21.50;95.90;;;;;;5103303;28;20028;-73
2022/05/22 09:41:11;;;;;;;14.65;4.65;;;21.30;96.20;;;;;;5108734;28;20035;-73
2022/05/22 09:43:48;;;;;;;18.77;5.00;;;21.50;95.30;;;;;;5100900;28;20034;-73
2022/05/22 09:46:52;;;;;;;14.05;4.07;;;22.00;94.90;;;;;;5103503;28;20020;-73
2022/05/22 09:49:27;;;;;;;19.48;4.78;;;22.00;95.90;;;;;;5073103;28;20028;-73
2022/05/22 09:52:16;;;;;;;15.82;4.57;;;22.00;95.30;;;;;;5071017;28;20040;-73
2022/05/22 09:55:21;;;;;;;15.55;4.30;;;22.50;95.30;;;;;;5072931;28;20036;-73
2022/05/22 09:58:24;;;;;;;14.55;4.55;;;22.40;94.50;;;;;;5072821;28;20040;-73
2022/05/22 10:01:03;;;;;;;8.23;3.72;;;22.50;94.30;;;;;;5094179;28;20051;-73
2022/05/22 10:03:41;;;;;;;18.38;5.18;;;22.70;93.10;;;;;;5076201;28;20027;-73
2022/05/22 10:06:16;;;;;;;20.83;5.18;;;22.90;93.30;;;;;;5076329;28;20469;-73
2022/05/22 10:08:48;;;;;;;16.92;5.10;;;22.70;93.20;;;;;;5079682;28;20043;-73
2022/05/22 10:11:19;;;;;;;;;;;22.30;92.70;;;;;;5080059;28;20063;-73
2022/05/22 10:13:54;;;;;;;12.75;4.20;;;22.40;93.00;;;;;;5075079;28;20279;-73
2022/05/22 10:16:29;;;;;;;13.45;4.30;;;21.80;94.20;;;;;;5081422;28;20036;-73
2022/05/22 10:19:08;;;;;;;14.38;5.22;;;22.10;94.40;;;;;;5103652;28;20506;-73
2022/05/22 10:22:09;;;;;;;18.25;4.93;;;22.50;94.20;;;;;;5082443;28;20475;-73
2022/05/22 10:24:44;;;;;;;17.30;5.70;;;22.00;93.50;;;;;;5099189;28;20109;-73
2022/05/22 10:27:46;;;;;;;16.23;5.53;;;21.10;95.00;;;;;;5080133;28;20274;-73
2022/05/22 10:30:34;;;;;;;21.38;4.60;;;21.70;94.40;;;;;;5080222;28;20032;-73
2022/05/22 10:33:14;;;;;;;14.02;4.47;;;22.60;94.60;;;;;;5077702;28;20077;-73
2022/05/22 10:35:47;;;;;;;10.75;3.15;;;22.80;92.40;;;;;;5075549;28;20105;-74
2022/05/22 10:38:16;;;;;;;17.77;3.58;;;23.10;93.10;;;;;;5074893;28;20040;-73
2022/05/22 10:43:38;;;;;;;15.18;4.53;;;22.90;92.20;;;;;;5082072;28;20024;-73
2022/05/22 10:46:04;;;;;;;14.07;4.45;;;22.80;92.40;;;;;;5102691;28;20029;-73
2022/05/22 10:48:32;;;;;;;17.40;4.68;;;22.30;92.40;;;;;;5090179;28;20031;-74
2022/05/22 10:51:07;;;;;;;11.63;3.50;;;22.80;93.40;;;;;;5077380;28;20092;-73
2022/05/22 10:53:59;;;;;;;17.50;4.13;;;23.50;93.30;;;;;;5072459;28;20040;-73
2022/05/22 10:56:34;;;;;;;11.38;3.40;;;23.90;91.50;;;;;;5074027;28;20044;-73
2022/05/22 10:59:06;;;;;;;11.40;3.53;;;24.00;91.50;;;;;;5079212;28;20035;-74
2022/05/22 11:01:35;;;;;;;15.00;3.70;;;23.40;91.00;;;;;;5104058;28;20020;-73
2022/05/22 11:04:16;;;;;;;11.93;3.53;;;23.20;92.40;;;;;;5080558;28;20085;-73
2022/05/22 11:06:55;;;;;;;9.30;3.03;;;23.10;91.70;;;;;;5105352;28;20122;-74
2022/05/22 11:09:27;;;;;;;12.98;3.72;;;23.40;91.50;;;;;;5099240;28;20111;-74
2022/05/22 11:12:09;;;;;;;11.68;3.63;;;23.20;91.30;;;;;;5101318;28;20499;-74
2022/05/22 11:14:35;;;;;;;16.50;3.70;;;23.20;91.00;;;;;;5108720;28;20084;-73
2022/05/22 11:17:13;;;;;;;17.73;3.28;;;24.00;90.90;;;;;;5095860;28;20054;-74
2022/05/22 11:19:44;;;;;;;12.57;2.88;;;24.70;91.50;;;;;;5102915;28;20020;-74
2022/05/22 11:22:37;;;;;;;9.32;2.60;;;25.00;90.10;;;;;;5105261;28;20102;-74
2022/05/22 11:25:09;;;;;;;12.13;2.83;;;24.50;89.30;;;;;;5071721;28;20033;-74
2022/05/22 11:27:44;;;;;;;13.43;3.08;;;24.70;90.70;;;;;;5078483;28;20103;-74
2022/05/22 11:30:18;;;;;;;12.63;3.08;;;25.00;88.20;;;;;;5084389;28;20016;-74
2022/05/22 11:32:59;;;;;;;13.25;3.42;;;25.30;89.20;;;;;;5073186;28;20023;-74
2022/05/22 11:35:32;;;;;;;12.88;2.92;;;25.30;86.70;;;;;;5076681;28;20024;-74
2022/05/22 11:38:05;;;;;;;13.18;3.63;;;25.20;89.20;;;;;;5077918;28;20489;-74
2022/05/22 11:40:48;;;;;;;11.25;3.45;;;24.90;87.90;;;;;;5079472;28;20384;-74
2022/05/22 11:43:38;;;;;;;12.02;3.90;;;25.30;88.70;;;;;;5091862;28;20453;-74
2022/05/22 11:46:17;;;;;;;10.38;2.90;;;25.40;84.30;;;;;;5080230;28;20020;-74
2022/05/22 11:48:49;;;;;;;13.48;3.67;;;24.80;87.50;;;;;;5076244;28;20070;-74
2022/05/22 11:51:26;;;;;;;14.65;3.67;;;25.20;86.90;;;;;;5077129;28;21041;-74
2022/05/22 11:54:07;;;;;;;12.43;3.25;;;25.40;86.30;;;;;;5078119;28;20028;-74
2022/05/22 11:56:38;;;;;;;12.88;3.83;;;25.60;88.90;;;;;;5086120;28;20397;-74
2022/05/22 11:59:10;;;;;;;;;;;25.20;88.50;;;;;;5064397;28;20086;-74
2022/05/22 12:02:31;;;;;;;9.02;2.95;;;25.70;86.80;;;;;;5077719;28;19908;-74
2022/05/22 12:05:38;;;;;;;9.05;3.63;;;25.10;85.60;;;;;;5084529;28;20035;-74
2022/05/22 12:08:13;;;;;;;13.52;3.90;;;26.10;87.70;;;;;;5074363;28;20036;-74
2022/05/22 12:10:56;;;;;;;13.77;3.80;;;25.80;85.40;;;;;;5094809;28;20479;-74
2022/05/22 12:13:50;;;;;;;8.80;2.72;;;26.00;87.40;;;;;;5099353;28;20032;-73
2022/05/22 12:16:42;;;;;;;8.88;2.45;;;26.20;86.00;;;;;;5087867;28;20039;-74
2022/05/22 12:19:38;;;;;;;8.13;3.20;;;26.30;87.80;;;;;;5100783;28;20051;-73
2022/05/22 12:23:07;;;;;;;12.48;3.03;;;27.00;84.90;;;;;;5085044;28;20020;-74
2022/05/22 12:25:15;;;;;;;10.40;3.08;;;26.60;84.50;;;;;;5084994;28;20111;-74
2022/05/22 12:27:41;;;;;;;19.00;3.67;;;27.50;81.90;;;;;;5080887;28;20032;-74
2022/05/22 12:30:28;;;;;;;12.27;2.75;;;27.00;84.60;;;;;;5075342;28;20024;-75
2022/05/22 12:33:00;;;;;;;11.45;2.92;;;27.60;85.80;;;;;;5074247;28;20408;-74
2022/05/22 12:35:27;;;;;;;11.13;3.20;;;28.90;84.00;;;;;;5107475;28;20062;-74
2022/05/22 12:38:01;;;;;;;10.98;2.90;;;29.00;82.30;;;;;;5115363;28;20063;-74
2022/05/22 12:40:44;;;;;;;7.00;2.60;;;27.30;79.30;;;;;;5115642;28;20035;-74
2022/05/22 12:43:15;;;;;;;8.57;2.63;;;27.00;82.80;;;;;;5115177;28;20024;-74
2022/05/22 12:45:41;;;;;;;10.18;2.72;;;27.50;81.60;;;;;;5113933;28;20047;-74
2022/05/22 12:48:26;;;;;;;12.27;3.58;;;27.50;79.00;;;;;;5099059;28;20065;-74
2022/05/22 12:51:08;;;;;;;12.77;3.45;;;27.40;80.50;;;;;;5076041;28;20554;-73
2022/05/22 12:53:37;;;;;;;12.10;3.00;;;27.80;80.70;;;;;;5074029;28;20492;-73
2022/05/22 12:56:37;;;;;;;20.08;3.00;;;28.00;81.50;;;;;;5073634;28;20068;-73
2022/05/22 12:59:49;;;;;;;7.60;2.42;;;29.40;81.00;;;;;;5040514;28;20092;-72
2022/05/22 13:02:41;;;;;;;10.90;3.60;;;28.10;79.80;;;;;;5031664;28;20033;-72
2022/05/22 13:05:29;;;;;;;8.52;2.85;;;27.60;77.80;;;;;;5073672;28;20028;-73
2022/05/22 13:07:55;;;;;;;12.27;2.85;;;26.70;78.50;;;;;;5074433;28;20041;-74
2022/05/22 13:10:42;;;;;;;12.10;3.40;;;26.60;78.60;;;;;;5074355;28;20040;-74
2022/05/22 13:13:12;;;;;;;10.57;2.53;;;26.70;77.50;;;;;;5074252;28;20454;-74
2022/05/22 13:15:57;;;;;;;9.45;2.45;;;27.50;78.70;;;;;;5074111;28;20038;-74
2022/05/22 13:18:23;;;;;;;12.77;2.90;;;28.60;78.80;;;;;;5074176;28;20059;-75
2022/05/22 13:20:53;;;;;;;11.20;2.88;;;28.60;79.20;;;;;;5074366;28;20017;-74
2022/05/22 13:23:22;;;;;;;12.05;2.72;;;29.30;77.70;;;;;;5074234;28;20465;-74
2022/05/22 13:25:55;;;;;;;8.55;2.65;;;29.40;76.40;;;;;;5074419;28;20072;-75
2022/05/22 13:28:39;;;;;;;10.30;2.45;;;30.10;74.20;;;;;;5073605;28;20037;-74
2022/05/22 13:31:11;;;;;;;12.05;2.65;;;30.20;74.40;;;;;;5073197;28;20120;-74
2022/05/22 13:33:45;;;;;;;6.85;2.22;;;29.40;73.80;;;;;;5073418;28;20503;-74
2022/05/22 13:36:20;;;;;;;10.52;2.53;;;27.80;74.30;;;;;;5073929;28;20439;-74